Time;durP1;ratioP1;P1;durP2;ratioP2;P2;SDS_P1;SDS_P2;PMS_P1;PMS_P2;Temp;Humidity;BMP_temperature;BMP_pressure;BME280_temperature;BME280_humidity;BME280_pressure;Samples;Min_cycle;Max_cycle;Signal;HPM_P1;HPM_P2
2023/05/12 00:01:22;;;;;;;5.33;4.83;;;17.80;99.90;;;;;;4979320;28;20918;-80
2023/05/12 00:03:48;;;;;;;6.10;5.23;;;17.80;99.90;;;;;;4963362;28;20473;-79
2023/05/12 00:06:14;;;;;;;6.37;5.37;;;17.80;99.90;;;;;;4978323;28;20461;-80
2023/05/12 00:08:42;;;;;;;6.23;5.10;;;17.80;99.90;;;;;;4963974;28;20404;-80
2023/05/12 00:11:10;;;;;;;6.93;5.20;;;17.80;99.90;;;;;;4964147;28;20430;-80
2023/05/12 00:13:39;;;;;;;5.97;5.37;;;17.80;99.90;;;;;;4979363;28;20534;-79
2023/05/12 00:16:05;;;;;;;6.80;5.00;;;17.80;99.90;;;;;;4962080;28;20495;-79
2023/05/12 00:18:33;;;;;;;5.13;4.63;;;17.80;99.90;;;;;;4928353;28;20424;-80
2023/05/12 00:21:00;;;;;;;7.50;5.27;;;17.70;99.90;;;;;;4960452;28;20428;-80
2023/05/12 00:23:25;;;;;;;5.77;5.00;;;17.70;99.90;;;;;;4928294;28;20523;-80
2023/05/12 00:25:51;;;;;;;5.90;5.30;;;17.70;99.90;;;;;;4944839;28;20445;-79
2023/05/12 00:28:20;;;;;;;6.03;5.50;;;17.70;99.90;;;;;;4944682;28;20212;-79
2023/05/12 00:30:46;;;;;;;6.23;4.90;;;17.70;99.90;;;;;;4940929;28;20424;-79
2023/05/12 00:33:12;;;;;;;5.50;4.90;;;17.70;99.90;;;;;;4964205;28;20991;-80
2023/05/12 00:35:38;;;;;;;6.53;5.83;;;17.70;99.90;;;;;;4969443;28;20868;-79
2023/05/12 00:38:05;;;;;;;7.73;5.90;;;17.70;99.90;;;;;;4964659;28;20456;-80
2023/05/12 00:40:34;;;;;;;8.27;6.03;;;17.70;99.90;;;;;;4964491;28;21048;-80
2023/05/12 00:43:03;;;;;;;6.17;5.07;;;17.70;99.90;;;;;;4980593;28;20475;-81
2023/05/12 00:45:31;;;;;;;7.03;5.80;;;17.70;99.90;;;;;;4952756;28;20489;-80
2023/05/12 00:47:59;;;;;;;5.53;4.80;;;17.70;99.90;;;;;;4963798;28;20441;-81
2023/05/12 00:50:26;;;;;;;5.23;4.80;;;17.70;99.90;;;;;;4981117;28;20984;-79
2023/05/12 00:52:52;;;;;;;5.90;5.30;;;17.60;99.90;;;;;;4948734;28;20482;-81
2023/05/12 00:55:18;;;;;;;5.73;4.60;;;17.60;99.90;;;;;;4970374;28;20417;-80
2023/05/12 00:57:47;;;;;;;4.70;4.30;;;17.60;99.90;;;;;;4961774;28;20856;-80
2023/05/12 01:00:17;;;;;;;4.87;4.33;;;17.60;99.90;;;;;;4947581;28;20424;-81
2023/05/12 01:02:45;;;;;;;4.40;4.00;;;17.60;99.90;;;;;;4958363;28;20483;-80
2023/05/12 01:05:14;;;;;;;5.30;3.97;;;17.60;99.90;;;;;;4945566;28;20452;-80
2023/05/12 01:07:41;;;;;;;42.87;5.80;;;17.60;99.90;;;;;;4956375;28;20489;-81
2023/05/12 01:10:22;;;;;;;4.60;3.70;;;17.60;99.90;;;;;;4965441;28;20442;-80
2023/05/12 01:12:50;;;;;;;4.77;3.60;;;17.60;99.90;;;;;;4965116;28;20976;-79
2023/05/12 01:15:17;;;;;;;4.00;3.70;;;17.60;99.90;;;;;;4963573;28;20526;-79
2023/05/12 01:17:53;;;;;;;4.17;3.77;;;17.60;99.90;;;;;;4960051;28;20919;-79
2023/05/12 01:20:24;;;;;;;4.57;3.80;;;17.60;99.90;;;;;;4948566;28;20660;-80
2023/05/12 01:22:51;;;;;;;3.50;3.20;;;17.50;99.90;;;;;;4943100;28;20475;-80
2023/05/12 01:25:21;;;;;;;4.50;3.30;;;17.50;99.90;;;;;;4968159;28;20438;-79
2023/05/12 01:27:50;;;;;;;3.53;2.73;;;17.50;99.90;;;;;;4967879;28;20430;-79
2023/05/12 01:30:17;;;;;;;3.67;3.10;;;17.50;99.90;;;;;;4966286;28;20443;-79
2023/05/12 01:32:44;;;;;;;3.60;3.17;;;17.50;99.90;;;;;;4984877;28;20450;-80
2023/05/12 01:35:10;;;;;;;3.37;3.07;;;17.50;99.90;;;;;;4967865;28;20420;-80
2023/05/12 01:37:43;;;;;;;2.77;2.57;;;17.50;99.90;;;;;;4983784;28;20453;-80
2023/05/12 01:40:09;;;;;;;3.03;2.43;;;17.50;99.90;;;;;;4952406;28;20885;-81
2023/05/12 01:42:41;;;;;;;3.07;2.77;;;17.50;99.90;;;;;;4984150;28;20844;-80
2023/05/12 01:45:10;;;;;;;2.67;2.47;;;17.50;99.90;;;;;;4967166;28;20449;-79
2023/05/12 01:47:39;;;;;;;2.60;2.40;;;17.50;99.90;;;;;;4975935;28;20451;-80
2023/05/12 01:50:09;;;;;;;3.03;2.73;;;17.50;99.90;;;;;;4964315;28;20483;-80
2023/05/12 01:52:36;;;;;;;2.73;2.20;;;17.40;99.90;;;;;;4938898;28;20872;-81
2023/05/12 01:55:04;;;;;;;3.07;2.77;;;17.50;99.90;;;;;;4966965;28;20439;-81
2023/05/12 01:57:38;;;;;;;2.77;2.57;;;17.50;99.90;;;;;;4978882;28;20432;-80
2023/05/12 02:00:07;;;;;;;2.40;2.20;;;17.40;99.90;;;;;;4964299;28;20417;-81
2023/05/12 02:02:41;;;;;;;2.50;2.30;;;17.50;99.90;;;;;;4964885;28;20471;-80
2023/05/12 02:05:08;;;;;;;4.30;2.73;;;17.40;99.90;;;;;;4932297;28;20431;-80
2023/05/12 02:07:39;;;;;;;2.57;2.10;;;17.40;99.90;;;;;;4964591;28;20424;-81
2023/05/12 02:10:06;;;;;;;2.00;1.90;;;17.50;99.90;;;;;;4947686;28;20930;-79
2023/05/12 02:12:35;;;;;;;3.50;2.60;;;17.50;99.90;;;;;;4947887;28;20444;-80
2023/05/12 02:15:01;;;;;;;2.10;2.00;;;17.50;99.90;;;;;;4931591;28;20538;-81
2023/05/12 02:17:27;;;;;;;2.90;2.23;;;17.40;99.90;;;;;;4967456;28;20983;-80
2023/05/12 02:19:57;;;;;;;2.67;2.43;;;17.50;99.90;;;;;;4966329;28;20427;-79
2023/05/12 02:22:25;;;;;;;1.90;1.77;;;17.40;99.90;;;;;;4980577;28;20445;-80
2023/05/12 02:24:54;;;;;;;2.23;1.93;;;17.40;99.90;;;;;;4948252;28;20777;-79
2023/05/12 02:27:23;;;;;;;6.20;2.13;;;17.40;99.90;;;;;;4949845;28;20451;-80
2023/05/12 02:29:48;;;;;;;2.20;2.00;;;17.40;99.90;;;;;;4983161;28;20423;-80
2023/05/12 02:32:18;;;;;;;2.20;2.00;;;17.40;99.90;;;;;;4962825;28;20535;-81
2023/05/12 02:34:46;;;;;;;2.27;2.07;;;17.40;99.90;;;;;;4946019;28;20434;-81
2023/05/12 02:37:15;;;;;;;1.90;1.80;;;17.40;99.90;;;;;;4963632;28;20803;-80
2023/05/12 02:39:41;;;;;;;2.03;1.83;;;17.40;99.90;;;;;;4981727;28;20801;-81
2023/05/12 02:42:07;;;;;;;1.90;1.80;;;17.40;99.90;;;;;;4966114;28;20429;-80
2023/05/12 02:44:33;;;;;;;2.20;2.00;;;17.40;99.90;;;;;;4982744;28;20657;-80
2023/05/12 02:46:59;;;;;;;2.73;2.53;;;17.40;99.90;;;;;;4946880;28;20472;-80
2023/05/12 02:49:25;;;;;;;1.80;1.70;;;17.40;99.90;;;;;;4947162;28;20762;-80
2023/05/12 02:51:54;;;;;;;3.90;1.93;;;17.40;99.90;;;;;;4947602;28;20201;-81
2023/05/12 02:54:20;;;;;;;2.20;2.00;;;17.40;99.90;;;;;;4964039;28;20462;-81
2023/05/12 02:56:48;;;;;;;2.40;1.97;;;17.40;99.90;;;;;;4964946;28;20571;-80
2023/05/12 02:59:14;;;;;;;2.50;2.30;;;17.30;99.90;;;;;;4931550;28;20427;-80
2023/05/12 03:01:40;;;;;;;2.10;1.93;;;17.30;99.90;;;;;;4958491;28;20447;-81
2023/05/12 03:04:06;;;;;;;2.40;2.17;;;17.30;99.90;;;;;;4982481;28;20211;-80
2023/05/12 03:06:32;;;;;;;2.20;2.00;;;17.30;99.90;;;;;;4981206;28;20539;-79
2023/05/12 03:08:58;;;;;;;2.67;1.93;;;17.30;99.90;;;;;;4966319;28;20450;-80
2023/05/12 03:11:25;;;;;;;2.57;1.60;;;17.30;99.90;;;;;;4966545;28;20457;-81
2023/05/12 03:13:51;;;;;;;1.70;1.60;;;17.30;99.90;;;;;;4946003;28;20823;-82
2023/05/12 03:16:19;;;;;;;1.73;1.63;;;17.30;99.90;;;;;;4930784;28;20472;-81
2023/05/12 03:18:48;;;;;;;2.00;1.90;;;17.30;99.90;;;;;;4962264;28;20895;-81
2023/05/12 03:21:17;;;;;;;2.00;1.90;;;17.30;99.90;;;;;;4962027;28;20515;-81
2023/05/12 03:23:42;;;;;;;2.77;1.53;;;17.30;99.90;;;;;;4992386;28;21000;-80
2023/05/12 03:26:08;;;;;;;2.23;1.60;;;17.30;99.90;;;;;;4946312;28;20428;-80
2023/05/12 03:28:37;;;;;;;1.43;1.33;;;17.30;99.90;;;;;;4971832;28;20950;-80
2023/05/12 03:31:03;;;;;;;1.70;1.50;;;17.30;99.90;;;;;;4975503;28;20442;-80
2023/05/12 03:33:29;;;;;;;1.93;1.73;;;17.30;99.90;;;;;;4997526;28;20486;-79
2023/05/12 03:35:57;;;;;;;2.60;1.77;;;17.30;99.90;;;;;;4965190;28;20981;-80
2023/05/12 03:38:23;;;;;;;1.50;1.40;;;17.30;99.90;;;;;;4965020;28;20583;-79
2023/05/12 03:40:52;;;;;;;1.60;1.50;;;17.30;99.90;;;;;;4963771;28;20462;-77
2023/05/12 03:43:20;;;;;;;2.90;1.63;;;17.20;99.90;;;;;;4966239;28;20475;-79
2023/05/12 03:45:48;;;;;;;1.30;1.20;;;17.20;99.90;;;;;;4949388;28;20449;-78
2023/05/12 03:48:16;;;;;;;1.83;1.47;;;17.20;99.90;;;;;;4980431;28;20414;-79
2023/05/12 03:50:42;;;;;;;1.90;1.50;;;17.20;99.90;;;;;;4963017;28;20209;-77
2023/05/12 03:53:08;;;;;;;2.47;1.37;;;17.20;99.90;;;;;;4990867;28;20452;-81
2023/05/12 03:55:34;;;;;;;1.70;1.60;;;17.30;99.90;;;;;;4966265;28;20804;-81
2023/05/12 03:58:03;;;;;;;2.30;1.50;;;17.20;99.90;;;;;;4984723;28;20196;-80
2023/05/12 04:00:29;;;;;;;1.43;1.33;;;17.20;99.90;;;;;;4978995;28;20416;-80
2023/05/12 04:02:55;;;;;;;1.70;1.60;;;17.20;99.90;;;;;;4948301;28;20595;-79
2023/05/12 04:05:21;;;;;;;1.50;1.40;;;17.20;99.90;;;;;;4965698;28;20550;-79
2023/05/12 04:07:47;;;;;;;1.30;1.20;;;17.20;99.90;;;;;;4959832;28;20456;-79
2023/05/12 04:10:19;;;;;;;1.60;1.50;;;17.20;99.90;;;;;;4948453;28;20427;-80
2023/05/12 04:12:47;;;;;;;1.77;1.23;;;17.20;99.90;;;;;;4980104;28;20439;-79
2023/05/12 04:15:13;;;;;;;1.50;1.40;;;17.20;99.90;;;;;;4964855;28;20465;-78
2023/05/12 04:17:40;;;;;;;1.37;1.27;;;17.20;99.90;;;;;;4959498;28;20446;-80
2023/05/12 04:20:07;;;;;;;1.77;1.67;;;17.20;99.90;;;;;;4957159;28;20448;-79
2023/05/12 04:22:35;;;;;;;1.97;1.77;;;17.20;99.90;;;;;;4979493;28;20468;-78
2023/05/12 04:25:01;;;;;;;1.57;1.47;;;17.20;99.90;;;;;;4945123;28;20435;-78
2023/05/12 04:27:27;;;;;;;1.60;1.50;;;17.10;99.90;;;;;;4929916;28;20459;-78
2023/05/12 04:29:56;;;;;;;1.53;1.43;;;17.20;99.90;;;;;;4944845;28;20420;-79
2023/05/12 04:32:23;;;;;;;2.30;1.40;;;17.10;99.90;;;;;;4963809;28;20459;-78
2023/05/12 04:34:50;;;;;;;1.40;1.30;;;17.10;99.90;;;;;;4965053;28;20436;-80
2023/05/12 04:37:17;;;;;;;1.40;1.30;;;17.10;99.90;;;;;;4965043;28;20415;-81
2023/05/12 04:39:43;;;;;;;1.70;1.60;;;17.10;99.90;;;;;;4932115;28;20432;-80
2023/05/12 04:42:09;;;;;;;2.60;1.97;;;17.10;99.90;;;;;;4943839;28;20514;-79
2023/05/12 04:44:35;;;;;;;2.03;1.70;;;17.20;99.90;;;;;;4976649;28;20477;-79
2023/05/12 04:47:01;;;;;;;1.60;1.50;;;17.20;99.90;;;;;;4984549;28;20457;-79
2023/05/12 04:49:32;;;;;;;2.30;1.80;;;17.20;99.90;;;;;;4984723;28;20407;-80
2023/05/12 04:52:00;;;;;;;1.90;1.80;;;17.10;99.90;;;;;;4984737;28;20916;-80
2023/05/12 04:54:26;;;;;;;2.20;1.60;;;17.10;99.90;;;;;;4951320;28;20456;-79
2023/05/12 04:56:55;;;;;;;1.70;1.60;;;17.10;99.90;;;;;;4946117;28;20546;-80
2023/05/12 04:59:21;;;;;;;1.60;1.50;;;17.10;99.90;;;;;;4949518;28;20425;-79
2023/05/12 05:01:50;;;;;;;2.17;1.70;;;17.10;99.90;;;;;;4979722;28;20453;-80
2023/05/12 05:04:20;;;;;;;1.80;1.70;;;17.10;99.90;;;;;;4954057;28;20571;-79
2023/05/12 05:06:46;;;;;;;1.70;1.60;;;17.10;99.90;;;;;;4982778;28;20465;-79
2023/05/12 05:09:13;;;;;;;1.63;1.53;;;17.10;99.90;;;;;;4967999;28;20427;-79
2023/05/12 05:11:39;;;;;;;2.00;1.80;;;17.10;99.90;;;;;;4956300;28;20430;-79
2023/05/12 05:14:10;;;;;;;1.77;1.67;;;17.10;99.90;;;;;;4933455;28;20452;-79
2023/05/12 05:16:36;;;;;;;2.10;1.90;;;17.10;99.90;;;;;;4931341;28;20426;-78
2023/05/12 05:19:04;;;;;;;2.00;1.90;;;17.10;99.90;;;;;;4947645;28;20424;-77
2023/05/12 05:21:31;;;;;;;2.10;1.83;;;17.10;99.90;;;;;;4972426;28;20446;-79
2023/05/12 05:23:57;;;;;;;2.37;2.17;;;17.10;99.90;;;;;;4952157;28;20844;-79
2023/05/12 05:26:24;;;;;;;1.90;1.70;;;17.10;99.90;;;;;;4969526;28;20463;-79
2023/05/12 05:28:58;;;;;;;2.13;2.03;;;17.10;99.90;;;;;;4965940;28;20434;-78
2023/05/12 05:31:27;;;;;;;1.83;1.70;;;17.10;99.90;;;;;;4942234;28;20464;-79
2023/05/12 05:33:54;;;;;;;2.93;2.17;;;17.10;99.90;;;;;;4943177;28;21002;-77
2023/05/12 05:36:25;;;;;;;2.20;2.00;;;17.00;99.90;;;;;;4967023;28;20433;-79
2023/05/12 05:38:53;;;;;;;2.20;2.10;;;17.10;99.90;;;;;;4963637;28;20476;-78
2023/05/12 05:41:21;;;;;;;1.60;1.50;;;17.00;99.90;;;;;;4963401;28;20435;-78
2023/05/12 05:43:47;;;;;;;2.90;2.00;;;17.00;99.90;;;;;;4949876;28;20474;-79
2023/05/12 05:46:13;;;;;;;1.90;1.80;;;17.00;99.90;;;;;;4981249;28;20400;-76
2023/05/12 05:48:40;;;;;;;2.03;1.83;;;17.00;99.90;;;;;;4948859;28;20974;-77
2023/05/12 05:51:10;;;;;;;2.30;2.10;;;17.00;99.90;;;;;;4964615;28;20493;-77
2023/05/12 05:53:42;;;;;;;2.00;1.80;;;17.00;99.90;;;;;;4979932;28;20458;-77
2023/05/12 05:56:09;;;;;;;2.20;2.00;;;17.00;99.90;;;;;;4969130;28;20425;-77
2023/05/12 05:58:39;;;;;;;1.60;1.50;;;17.00;99.90;;;;;;4966901;28;20993;-77
2023/05/12 06:01:06;;;;;;;1.70;1.57;;;17.00;99.90;;;;;;4974368;28;20857;-77
2023/05/12 06:03:33;;;;;;;2.13;1.93;;;17.00;99.90;;;;;;4952677;28;20485;-77
2023/05/12 06:05:59;;;;;;;4.77;1.87;;;17.00;99.90;;;;;;4959259;28;20459;-77
2023/05/12 06:08:28;;;;;;;1.83;1.73;;;17.00;99.90;;;;;;4956931;28;20431;-77
2023/05/12 06:10:56;;;;;;;2.50;2.30;;;17.00;99.90;;;;;;4971610;28;20932;-78
2023/05/12 06:13:22;;;;;;;7.80;2.17;;;17.00;99.90;;;;;;4978506;28;20540;-76
2023/05/12 06:15:53;;;;;;;2.50;2.30;;;17.00;99.90;;;;;;4963558;28;20434;-77
2023/05/12 06:18:21;;;;;;;2.23;2.03;;;17.00;99.90;;;;;;4947411;28;20544;-76
2023/05/12 06:20:47;;;;;;;2.47;1.93;;;17.00;99.90;;;;;;4997077;28;20404;-77
2023/05/12 06:23:13;;;;;;;2.00;1.90;;;17.00;99.90;;;;;;4975718;28;20553;-78
2023/05/12 06:25:42;;;;;;;5.03;2.47;;;17.00;99.90;;;;;;4938458;28;20550;-78
2023/05/12 06:28:08;;;;;;;5.43;1.90;;;17.00;99.90;;;;;;4954576;28;20500;-77
2023/05/12 06:30:36;;;;;;;2.50;2.30;;;17.00;99.90;;;;;;4961121;28;20488;-78
2023/05/12 06:33:04;;;;;;;2.67;2.10;;;17.00;99.90;;;;;;4978489;28;20465;-78
2023/05/12 06:35:33;;;;;;;2.93;2.07;;;17.00;99.90;;;;;;4964204;28;20951;-77
2023/05/12 06:37:59;;;;;;;3.60;1.83;;;17.00;99.90;;;;;;4994078;28;20418;-77
2023/05/12 06:40:27;;;;;;;5.20;2.43;;;17.00;99.90;;;;;;4959594;28;20849;-77
2023/05/12 06:42:58;;;;;;;2.70;2.50;;;17.00;99.90;;;;;;4959569;28;20823;-77
2023/05/12 06:45:30;;;;;;;2.40;2.20;;;17.00;99.90;;;;;;4959138;28;20455;-77
2023/05/12 06:47:58;;;;;;;2.60;2.40;;;17.00;99.90;;;;;;4929450;28;20893;-76
2023/05/12 06:50:26;;;;;;;2.10;1.90;;;17.00;99.90;;;;;;4957750;28;20940;-77
2023/05/12 06:52:57;;;;;;;3.33;2.60;;;17.00;99.90;;;;;;4993283;28;20514;-76
2023/05/12 06:55:23;;;;;;;2.10;2.00;;;17.00;99.90;;;;;;4962411;28;20210;-75
2023/05/12 06:57:54;;;;;;;2.93;2.50;;;17.00;99.90;;;;;;4960519;28;20466;-75
2023/05/12 07:00:26;;;;;;;2.20;2.10;;;17.00;99.90;;;;;;4975522;28;20805;-75
2023/05/12 07:02:52;;;;;;;4.03;2.63;;;17.00;99.90;;;;;;4976170;28;20475;-75
2023/05/12 07:05:19;;;;;;;3.53;2.50;;;17.00;99.90;;;;;;4992223;28;20595;-72
2023/05/12 07:07:47;;;;;;;3.63;2.40;;;17.00;99.90;;;;;;4993732;28;20656;-72
2023/05/12 07:10:15;;;;;;;2.80;2.13;;;17.00;99.90;;;;;;4975347;28;20517;-73
2023/05/12 07:12:44;;;;;;;2.80;2.60;;;17.00;99.90;;;;;;4976194;28;20538;-72
2023/05/12 07:15:10;;;;;;;2.40;2.20;;;17.00;99.90;;;;;;5010110;23;20818;-83
2023/05/12 07:17:41;;;;;;;2.83;2.53;;;17.00;99.90;;;;;;4980578;28;20434;-86
2023/05/12 07:20:09;;;;;;;2.60;2.40;;;17.00;99.90;;;;;;4990322;28;20461;-85
2023/05/12 07:22:36;;;;;;;2.53;2.33;;;17.00;99.90;;;;;;4996040;28;20428;-85
2023/05/12 07:25:05;;;;;;;2.73;2.53;;;17.00;99.90;;;;;;4947529;28;20436;-85
2023/05/12 07:27:31;;;;;;;2.70;2.50;;;17.00;99.90;;;;;;4989887;28;20443;-86
2023/05/12 07:29:57;;;;;;;2.63;2.43;;;17.00;99.90;;;;;;4979101;28;20419;-85
2023/05/12 07:32:28;;;;;;;2.73;2.40;;;17.00;99.90;;;;;;4979027;28;20182;-84
2023/05/12 07:34:56;;;;;;;2.90;2.70;;;17.00;99.90;;;;;;4979305;28;20442;-84
2023/05/12 07:37:25;;;;;;;2.87;2.60;;;17.00;99.90;;;;;;4988488;28;20438;-84
2023/05/12 07:39:53;;;;;;;3.23;2.57;;;17.00;99.90;;;;;;4998585;28;20164;-84
2023/05/12 07:42:18;;;;;;;3.00;2.50;;;17.00;99.90;;;;;;5015076;28;20441;-83
2023/05/12 07:44:44;;;;;;;3.33;3.03;;;17.00;99.90;;;;;;5011895;28;20293;-84
2023/05/12 07:47:10;;;;;;;3.50;2.57;;;17.00;99.90;;;;;;4995536;28;20527;-85
2023/05/12 07:49:36;;;;;;;3.13;2.83;;;17.00;99.90;;;;;;4982095;28;20472;-86
2023/05/12 07:52:05;;;;;;;3.43;2.93;;;17.00;99.90;;;;;;4997767;28;20277;-84
2023/05/12 07:54:33;;;;;;;3.00;2.70;;;17.00;99.90;;;;;;5015182;28;20517;-85
2023/05/12 07:57:02;;;;;;;3.20;2.37;;;17.00;99.90;;;;;;4997821;28;20522;-86
2023/05/12 07:59:27;;;;;;;3.17;2.70;;;17.00;99.90;;;;;;4981825;28;20425;-86
2023/05/12 08:01:53;;;;;;;4.50;2.53;;;17.00;99.90;;;;;;4998054;28;20524;-87
2023/05/12 08:04:19;;;;;;;2.70;2.50;;;17.00;99.90;;;;;;4984112;28;20798;-84
2023/05/12 08:06:50;;;;;;;3.03;2.73;;;17.00;99.90;;;;;;5005135;28;20517;-85
2023/05/12 08:09:18;;;;;;;3.87;3.10;;;17.00;99.90;;;;;;5012391;28;20445;-86
2023/05/12 08:11:44;;;;;;;2.67;2.47;;;17.00;99.90;;;;;;4975446;28;20426;-86
2023/05/12 08:14:10;;;;;;;3.17;2.87;;;17.00;99.90;;;;;;4981489;28;20782;-87
2023/05/12 08:16:39;;;;;;;3.90;2.90;;;17.00;99.90;;;;;;4996721;28;20426;-86
2023/05/12 08:19:05;;;;;;;4.33;3.27;;;17.00;99.90;;;;;;4966409;28;20458;-86
2023/05/12 08:21:38;;;;;;;3.00;2.70;;;17.00;99.90;;;;;;5015248;28;20466;-87
2023/05/12 08:24:04;;;;;;;3.03;2.80;;;17.00;99.90;;;;;;4987130;28;20469;-86
2023/05/12 08:26:30;;;;;;;2.97;2.77;;;17.00;99.90;;;;;;4995111;28;20450;-86
2023/05/12 08:28:56;;;;;;;4.20;3.10;;;17.00;99.90;;;;;;4978325;28;20481;-87
2023/05/12 08:31:24;;;;;;;4.60;3.40;;;17.00;99.90;;;;;;4981660;28;20584;-86
2023/05/12 08:33:50;;;;;;;3.67;3.33;;;17.00;99.90;;;;;;4961493;28;20191;-86
2023/05/12 08:36:18;;;;;;;3.13;2.83;;;17.00;99.90;;;;;;4958826;28;20441;-87
2023/05/12 08:38:51;;;;;;;3.40;3.10;;;17.00;99.90;;;;;;5003926;28;20427;-85
2023/05/12 08:41:41;;;;;;;4.33;3.27;;;17.00;99.90;;;;;;4984629;28;20483;-87
2023/05/12 08:44:27;;;;;;;5.50;3.07;;;17.00;99.90;;;;;;4997224;28;20876;-85
2023/05/12 08:46:57;;;;;;;3.30;3.00;;;17.00;99.90;;;;;;4979965;28;20483;-85
2023/05/12 08:49:39;;;;;;;3.47;3.07;;;17.00;99.90;;;;;;4963502;28;20441;-86
2023/05/12 08:52:13;;;;;;;4.30;3.20;;;17.00;99.90;;;;;;4961521;28;20948;-87
2023/05/12 08:54:39;;;;;;;3.50;3.30;;;17.00;99.90;;;;;;4962030;28;20442;-86
2023/05/12 08:57:05;;;;;;;3.93;3.57;;;17.00;99.90;;;;;;4962066;28;20479;-85
2023/05/12 08:59:36;;;;;;;4.20;3.80;;;17.00;99.90;;;;;;4977681;28;20431;-84
2023/05/12 09:02:08;;;;;;;4.17;3.77;;;17.00;99.90;;;;;;4977904;28;20422;-84
2023/05/12 09:04:37;;;;;;;4.23;3.70;;;17.00;99.90;;;;;;4961856;28;20457;-86
2023/05/12 09:07:05;;;;;;;4.20;3.50;;;17.00;99.90;;;;;;4946005;28;20783;-86
2023/05/12 09:09:35;;;;;;;3.77;3.03;;;17.00;99.90;;;;;;4984126;28;20438;-84
2023/05/12 09:12:08;;;;;;;4.30;3.23;;;17.00;99.90;;;;;;4977449;28;20780;-85
2023/05/12 09:14:36;;;;;;;4.33;3.60;;;17.10;99.90;;;;;;4978018;28;20474;-84
2023/05/12 09:17:04;;;;;;;3.80;3.40;;;17.00;99.90;;;;;;4994761;28;20525;-85
2023/05/12 09:19:33;;;;;;;4.90;3.80;;;17.10;99.90;;;;;;4968742;28;20450;-83
2023/05/12 09:22:03;;;;;;;3.93;3.40;;;17.10;99.90;;;;;;4956015;28;20475;-85
2023/05/12 09:24:38;;;;;;;3.93;3.30;;;17.10;99.90;;;;;;4983881;28;20458;-85
2023/05/12 09:27:05;;;;;;;4.57;3.50;;;17.10;99.90;;;;;;4991854;28;20414;-85
2023/05/12 09:29:32;;;;;;;4.30;3.90;;;17.10;99.90;;;;;;4976689;28;20805;-84
2023/05/12 09:32:00;;;;;;;5.07;3.20;;;17.10;99.90;;;;;;4989422;28;20435;-85
2023/05/12 09:34:34;;;;;;;3.50;3.20;;;17.10;99.90;;;;;;4980986;28;20421;-89
2023/05/12 09:37:05;;;;;;;3.73;3.43;;;17.10;99.90;;;;;;4971258;28;21030;-88
2023/05/12 09:39:35;;;;;;;4.60;3.43;;;17.10;99.90;;;;;;4961938;28;20417;-86
2023/05/12 09:42:01;;;;;;;3.63;3.30;;;17.10;99.90;;;;;;4967581;28;20434;-87
2023/05/12 09:44:31;;;;;;;3.60;3.30;;;17.10;99.90;;;;;;4999477;28;20799;-87
2023/05/12 09:47:05;;;;;;;4.07;3.10;;;17.10;99.90;;;;;;4958634;28;20463;-86
2023/05/12 09:49:31;;;;;;;4.37;2.97;;;17.10;99.90;;;;;;4984912;28;20439;-86
2023/05/12 09:51:58;;;;;;;4.53;3.27;;;17.20;99.90;;;;;;4984486;28;20909;-86
2023/05/12 09:54:29;;;;;;;4.40;3.90;;;17.20;99.90;;;;;;4978878;28;20456;-87
2023/05/12 09:57:01;;;;;;;3.43;3.13;;;17.20;99.90;;;;;;4980882;28;20490;-86
2023/05/12 09:59:31;;;;;;;3.40;3.10;;;17.20;99.90;;;;;;4981129;28;20441;-88
2023/05/12 10:02:03;;;;;;;3.67;3.27;;;17.20;99.90;;;;;;4986433;28;20434;-88
2023/05/12 10:04:42;;;;;;;5.70;3.83;;;17.20;99.90;;;;;;4968003;28;20513;-90
2023/05/12 10:07:11;;;;;;;3.43;3.03;;;17.30;99.90;;;;;;4948957;28;20442;-90
2023/05/12 10:09:41;;;;;;;3.73;3.43;;;17.30;99.90;;;;;;4933260;28;20434;-90
2023/05/12 10:12:08;;;;;;;4.03;3.63;;;17.30;99.90;;;;;;4929894;28;20509;-87
2023/05/12 10:14:35;;;;;;;4.60;3.20;;;17.30;99.90;;;;;;4963277;28;20445;-90
2023/05/12 10:17:02;;;;;;;3.70;3.40;;;17.30;99.90;;;;;;4949455;28;20434;-90
2023/05/12 10:19:29;;;;;;;3.73;3.33;;;17.30;99.90;;;;;;4964730;28;20502;-89
2023/05/12 10:21:59;;;;;;;3.60;3.30;;;17.40;99.90;;;;;;4953370;28;20419;-87
2023/05/12 10:24:27;;;;;;;3.50;3.20;;;17.40;99.90;;;;;;4964940;28;20958;-89
2023/05/12 10:26:56;;;;;;;3.53;3.23;;;17.40;99.90;;;;;;4964796;28;20444;-90
2023/05/12 10:29:31;;;;;;;4.07;3.60;;;17.40;99.90;;;;;;4965521;28;20823;-88
2023/05/12 10:32:00;;;;;;;4.00;3.70;;;17.40;99.90;;;;;;4964778;28;20761;-90
2023/05/12 10:34:34;;;;;;;3.20;2.90;;;17.40;99.90;;;;;;4965065;28;20473;-91
2023/05/12 10:37:02;;;;;;;3.47;3.20;;;17.40;99.90;;;;;;4969440;28;20501;-89
2023/05/12 10:39:29;;;;;;;5.00;3.80;;;17.50;99.90;;;;;;4948357;28;20429;-89
2023/05/12 10:42:04;;;;;;;4.17;3.77;;;17.50;99.90;;;;;;4948488;28;20459;-87
2023/05/12 10:44:30;;;;;;;3.43;3.13;;;17.50;99.90;;;;;;4964304;28;20469;-89
2023/05/12 10:46:59;;;;;;;3.20;3.00;;;17.50;99.90;;;;;;4948587;28;20734;-90
2023/05/12 10:49:39;;;;;;;4.10;3.60;;;17.50;99.90;;;;;;4964593;28;20180;-88
2023/05/12 10:52:06;;;;;;;4.93;3.60;;;17.60;99.90;;;;;;4964884;28;20461;-90
2023/05/12 10:54:43;;;;;;;3.97;3.67;;;17.50;99.90;;;;;;4948842;28;20441;-92
2023/05/12 10:57:19;;;;;;;4.13;3.73;;;17.60;99.90;;;;;;4964595;28;20461;-92
2023/05/12 10:59:50;;;;;;;3.47;3.17;;;17.60;99.90;;;;;;4964619;28;20430;-93
2023/05/12 11:02:24;;;;;;;4.13;3.73;;;17.60;99.90;;;;;;4997517;28;20420;-90
2023/05/12 11:05:00;;;;;;;3.73;3.43;;;17.60;99.90;;;;;;4948149;28;20469;-89
2023/05/12 11:07:29;;;;;;;4.00;3.60;;;17.70;99.90;;;;;;4948003;28;20506;-90
2023/05/12 11:09:59;;;;;;;3.93;3.60;;;17.60;99.90;;;;;;4954568;28;20438;-95
2023/05/12 11:12:32;;;;;;;3.40;3.10;;;17.70;99.90;;;;;;4949449;28;20991;-91
2023/05/12 11:15:02;;;;;;;3.57;3.27;;;17.70;99.90;;;;;;4948610;28;20466;-92
2023/05/12 11:17:28;;;;;;;3.60;3.30;;;17.70;99.90;;;;;;4948326;28;20430;-91
2023/05/12 11:19:54;;;;;;;3.40;3.20;;;17.70;99.90;;;;;;4964179;28;20802;-90
2023/05/12 11:22:21;;;;;;;4.30;3.70;;;17.70;99.90;;;;;;4980206;28;20466;-92
2023/05/12 11:24:51;;;;;;;3.77;3.47;;;17.70;99.90;;;;;;4971190;28;20475;-92
2023/05/12 11:27:22;;;;;;;5.40;4.40;;;17.80;99.90;;;;;;4967506;28;20542;-89
2023/05/12 11:29:58;;;;;;;5.80;5.20;;;17.80;99.90;;;;;;4967992;28;20757;-90
2023/05/12 11:32:25;;;;;;;6.70;4.30;;;17.80;99.90;;;;;;4980413;28;20443;-89
2023/05/12 11:34:51;;;;;;;6.10;4.27;;;17.80;99.90;;;;;;4979527;28;20994;-91
2023/05/12 11:37:19;;;;;;;5.77;4.07;;;17.80;99.90;;;;;;4998953;28;20770;-92
2023/05/12 11:39:48;;;;;;;5.60;4.23;;;17.80;99.90;;;;;;4982925;28;20422;-91
2023/05/12 11:42:16;;;;;;;5.30;4.77;;;17.80;99.90;;;;;;4968261;28;20536;-90
2023/05/12 11:44:49;;;;;;;4.97;4.57;;;17.80;99.90;;;;;;4996469;28;20988;-91
2023/05/12 11:47:16;;;;;;;6.30;4.70;;;17.90;99.90;;;;;;4963372;28;20761;-90
2023/05/12 11:49:54;;;;;;;7.50;4.00;;;17.90;99.90;;;;;;4979085;28;20440;-88
2023/05/12 11:52:26;;;;;;;4.50;4.10;;;17.90;99.90;;;;;;4979388;28;20793;-90
2023/05/12 11:54:57;;;;;;;4.30;3.77;;;17.90;99.90;;;;;;4963215;28;20838;-88
2023/05/12 11:57:27;;;;;;;4.60;4.20;;;17.90;99.90;;;;;;4972239;28;20498;-89
2023/05/12 11:59:57;;;;;;;3.83;3.53;;;18.00;99.90;;;;;;4968943;28;20412;-88
2023/05/12 12:02:26;;;;;;;4.73;4.33;;;18.00;99.90;;;;;;4962841;28;20448;-88
2023/05/12 12:04:52;;;;;;;4.90;4.40;;;18.00;99.90;;;;;;4946651;28;20611;-89
2023/05/12 12:07:31;;;;;;;3.93;3.50;;;18.00;99.90;;;;;;4978632;28;20430;-90
2023/05/12 12:10:17;;;;;;;4.80;4.40;;;18.00;99.90;;;;;;4950888;28;20494;-89
2023/05/12 12:12:44;;;;;;;5.17;3.97;;;18.10;99.90;;;;;;4965588;28;20514;-89
2023/05/12 12:15:10;;;;;;;3.93;3.53;;;18.10;99.90;;;;;;4981806;28;20513;-89
2023/05/12 12:17:38;;;;;;;4.43;4.03;;;18.10;99.90;;;;;;4981974;28;20460;-89
2023/05/12 12:20:05;;;;;;;4.83;4.43;;;18.10;99.90;;;;;;4966036;28;20899;-88
2023/05/12 12:22:32;;;;;;;4.40;4.03;;;18.10;99.90;;;;;;4981604;28;20546;-88
2023/05/12 12:24:59;;;;;;;4.37;4.00;;;18.20;99.90;;;;;;4981900;28;20443;-88
2023/05/12 12:27:25;;;;;;;5.20;3.90;;;18.20;99.90;;;;;;4970571;28;20486;-89
2023/05/12 12:29:53;;;;;;;4.53;4.13;;;18.20;99.90;;;;;;4962566;28;20436;-89
2023/05/12 12:32:19;;;;;;;4.10;3.80;;;18.20;99.90;;;;;;4962889;28;20284;-89
2023/05/12 12:34:47;;;;;;;4.47;4.07;;;18.20;99.90;;;;;;4962887;28;20543;-89
2023/05/12 12:37:13;;;;;;;4.90;4.13;;;18.20;99.90;;;;;;4978617;28;20464;-91
2023/05/12 12:39:39;;;;;;;4.60;4.20;;;18.20;99.90;;;;;;4995385;28;20509;-89
2023/05/12 12:42:05;;;;;;;4.17;3.80;;;18.30;99.90;;;;;;4996926;28;20465;-89
2023/05/12 12:44:31;;;;;;;3.80;3.50;;;18.30;99.90;;;;;;4981294;28;20836;-88
2023/05/12 12:46:58;;;;;;;3.83;3.53;;;18.30;99.90;;;;;;4990510;28;20438;-89
2023/05/12 12:49:24;;;;;;;4.83;3.50;;;18.30;99.90;;;;;;4962436;28;20439;-89
2023/05/12 12:51:50;;;;;;;4.20;3.83;;;18.30;99.90;;;;;;4978302;28;20451;-86
2023/05/12 12:54:16;;;;;;;4.13;3.83;;;18.40;99.90;;;;;;4961722;28;20435;-88